createdAt,value
2017-11-10T00:00:09.601Z,999.1
2017-11-10T00:00:29.829Z,999.1
2017-11-10T00:00:50.021Z,999.1
2017-11-10T00:01:10.203Z,999.1
2017-11-10T00:01:30.383Z,999.1
2017-11-10T00:01:50.560Z,999.1
2017-11-10T00:02:10.732Z,999.1
2017-11-10T00:02:30.926Z,999.1
2017-11-10T00:02:51.172Z,999.1
2017-11-10T00:03:11.355Z,999.1
2017-11-10T00:03:31.534Z,999
2017-11-10T00:03:51.723Z,999.1
2017-11-10T00:04:11.904Z,999
2017-11-10T00:04:32.142Z,999.1
2017-11-10T00:04:52.324Z,999.1
2017-11-10T00:05:12.608Z,999.1
2017-11-10T00:05:32.776Z,999.1
2017-11-10T00:05:52.952Z,999.1
2017-11-10T00:06:13.140Z,999.1
2017-11-10T00:06:33.347Z,999.1
2017-11-10T00:06:53.506Z,999.1
2017-11-10T00:07:13.690Z,999.1
2017-11-10T00:07:33.867Z,999.1
2017-11-10T00:07:54.097Z,999.1
2017-11-10T00:08:14.276Z,999.1
2017-11-10T00:08:34.475Z,999
2017-11-10T00:08:54.723Z,999
2017-11-10T00:09:14.963Z,999.1
2017-11-10T00:09:35.146Z,999.1
2017-11-10T00:09:55.337Z,999.1
2017-11-10T00:10:15.509Z,999.1
2017-11-10T00:10:35.683Z,999
2017-11-10T00:10:55.876Z,999.1
2017-11-10T00:11:16.120Z,999.1
2017-11-10T00:11:36.304Z,999.1
2017-11-10T00:11:56.474Z,999.1
2017-11-10T00:12:16.658Z,999
2017-11-10T00:12:36.917Z,999
2017-11-10T00:12:57.098Z,999
2017-11-10T00:13:17.264Z,999
2017-11-10T00:13:37.444Z,999
2017-11-10T00:13:57.626Z,999
2017-11-10T00:14:17.804Z,999
2017-11-10T00:14:38.156Z,999
2017-11-10T00:14:58.347Z,999
2017-11-10T00:15:18.529Z,999
2017-11-10T00:15:38.713Z,999
2017-11-10T00:15:58.880Z,999
2017-11-10T00:16:19.047Z,999
2017-11-10T00:16:39.215Z,999
2017-11-10T00:16:59.398Z,999
2017-11-10T00:17:19.573Z,999
2017-11-10T00:17:39.825Z,999
2017-11-10T00:18:01.865Z,999
2017-11-10T00:18:22.109Z,999
2017-11-10T00:18:42.746Z,999
2017-11-10T00:19:02.924Z,999
2017-11-10T00:19:23.143Z,999
2017-11-10T00:19:43.329Z,999
2017-11-10T00:20:03.522Z,999
2017-11-10T00:20:23.691Z,999
2017-11-10T00:20:43.868Z,999
2017-11-10T00:21:04.046Z,999
2017-11-10T00:21:24.228Z,999
2017-11-10T00:21:44.391Z,999
2017-11-10T00:22:04.558Z,999
2017-11-10T00:22:24.747Z,998.9
2017-11-10T00:22:44.930Z,999
2017-11-10T00:23:05.119Z,999
2017-11-10T00:23:25.291Z,999
2017-11-10T00:23:45.473Z,999
2017-11-10T00:24:05.708Z,999
2017-11-10T00:24:25.895Z,999
2017-11-10T00:24:46.063Z,999
2017-11-10T00:25:06.245Z,999
2017-11-10T00:25:26.422Z,998.9
2017-11-10T00:25:46.601Z,999
2017-11-10T00:26:06.789Z,999
2017-11-10T00:26:27.026Z,998.9
2017-11-10T00:26:47.212Z,998.9
2017-11-10T00:27:07.391Z,998.9
2017-11-10T00:27:27.583Z,999
2017-11-10T00:27:47.736Z,999
2017-11-10T00:28:07.913Z,998.9
2017-11-10T00:28:28.156Z,998.9
2017-11-10T00:28:48.329Z,998.9
2017-11-10T00:29:08.498Z,998.9
2017-11-10T00:29:28.665Z,998.9
2017-11-10T00:29:48.853Z,998.9
2017-11-10T00:30:09.028Z,998.9
2017-11-10T00:30:29.199Z,998.9
2017-11-10T00:30:49.380Z,998.9
2017-11-10T00:31:09.562Z,998.9
2017-11-10T00:31:29.732Z,998.9
2017-11-10T00:31:49.915Z,998.9
2017-11-10T00:32:10.086Z,998.9
2017-11-10T00:32:30.261Z,998.9
2017-11-10T00:32:50.447Z,998.9
2017-11-10T00:33:10.614Z,998.9
2017-11-10T00:33:30.802Z,998.9
2017-11-10T00:33:50.994Z,998.9
2017-11-10T00:34:11.181Z,998.9
2017-11-10T00:34:31.428Z,998.9
2017-11-10T00:34:51.594Z,998.9
2017-11-10T00:35:11.793Z,998.9
2017-11-10T00:35:31.981Z,998.9
2017-11-10T00:35:52.285Z,998.9
2017-11-10T00:36:12.471Z,998.9
2017-11-10T00:36:32.638Z,998.9
2017-11-10T00:36:52.828Z,998.9
2017-11-10T00:37:13.657Z,998.9
2017-11-10T00:37:33.850Z,998.8
2017-11-10T00:37:54.147Z,998.8
2017-11-10T00:38:14.386Z,998.8
2017-11-10T00:38:34.542Z,998.9
2017-11-10T00:38:54.718Z,998.9
2017-11-10T00:39:14.893Z,998.8
2017-11-10T00:39:35.067Z,998.8
2017-11-10T00:39:55.250Z,998.8
2017-11-10T00:40:15.439Z,998.8
2017-11-10T00:40:35.611Z,998.8
2017-11-10T00:40:55.807Z,998.8
2017-11-10T00:41:15.985Z,998.8
2017-11-10T00:41:36.173Z,998.8
2017-11-10T00:41:56.374Z,998.8
2017-11-10T00:42:16.623Z,998.8
2017-11-10T00:42:36.823Z,998.8
2017-11-10T00:42:56.992Z,998.8
2017-11-10T00:43:17.225Z,998.7
2017-11-10T00:43:37.468Z,998.8
2017-11-10T00:43:57.708Z,998.8
2017-11-10T00:44:17.946Z,998.8
2017-11-10T00:44:38.132Z,998.7
2017-11-10T00:44:58.315Z,998.8
2017-11-10T00:45:18.500Z,998.7
2017-11-10T00:45:38.679Z,998.7
2017-11-10T00:45:58.940Z,998.7
2017-11-10T00:46:19.119Z,998.7
2017-11-10T00:46:39.298Z,998.7
2017-11-10T00:46:59.485Z,998.7
2017-11-10T00:47:19.668Z,998.7
2017-11-10T00:47:39.858Z,998.7
2017-11-10T00:48:00.033Z,998.7
2017-11-10T00:48:20.207Z,998.7
2017-11-10T00:48:40.386Z,998.7
2017-11-10T00:49:00.567Z,998.6
2017-11-10T00:49:20.739Z,998.7
2017-11-10T00:49:40.915Z,998.7
2017-11-10T00:50:01.086Z,998.7
2017-11-10T00:50:21.255Z,998.6
2017-11-10T00:50:41.436Z,998.6
2017-11-10T00:51:01.599Z,998.7
2017-11-10T00:51:21.850Z,998.6
2017-11-10T00:51:42.023Z,998.6
2017-11-10T00:52:02.261Z,998.6
2017-11-10T00:52:22.438Z,998.6
2017-11-10T00:52:42.613Z,998.6
2017-11-10T00:53:02.856Z,998.6
2017-11-10T00:53:23.018Z,998.6
2017-11-10T00:53:43.198Z,998.6
2017-11-10T00:54:03.771Z,998.6
2017-11-10T00:54:24.217Z,998.6
2017-11-10T00:54:44.399Z,998.6
2017-11-10T00:55:04.634Z,998.6
2017-11-10T00:55:24.813Z,998.6
2017-11-10T00:55:44.986Z,998.6
2017-11-10T00:56:05.163Z,998.7
2017-11-10T00:56:25.359Z,998.7
2017-11-10T00:56:46.356Z,998.6
2017-11-10T00:57:06.584Z,998.6
2017-11-10T00:57:26.761Z,998.6
2017-11-10T00:57:46.935Z,998.6
2017-11-10T00:58:07.117Z,998.7
2017-11-10T00:58:27.315Z,998.7
2017-11-10T00:58:47.558Z,998.6
2017-11-10T00:59:07.730Z,998.6
2017-11-10T00:59:27.913Z,998.7
2017-11-10T00:59:48.089Z,998.7
2017-11-10T01:00:08.342Z,998.7
2017-11-10T01:00:28.521Z,998.7
2017-11-10T01:00:48.685Z,998.7
2017-11-10T01:01:08.866Z,998.6
2017-11-10T01:01:29.062Z,998.7
2017-11-10T01:01:49.250Z,998.7
2017-11-10T01:02:10.561Z,998.7
2017-11-10T01:02:30.620Z,998.6
2017-11-10T01:02:50.798Z,998.7
2017-11-10T01:03:10.971Z,998.7
2017-11-10T01:03:31.157Z,998.7
2017-11-10T01:03:51.349Z,998.6
2017-11-10T01:04:11.515Z,998.6
2017-11-10T01:04:31.694Z,998.6
2017-11-10T01:04:51.875Z,998.7
2017-11-10T01:05:12.053Z,998.6
2017-11-10T01:05:32.298Z,998.6
2017-11-10T01:05:52.477Z,998.6
2017-11-10T01:06:12.679Z,998.6
2017-11-10T01:06:32.836Z,998.7
2017-11-10T01:06:53.008Z,998.6
2017-11-10T01:07:13.185Z,998.7
2017-11-10T01:07:33.375Z,998.6
2017-11-10T01:07:53.552Z,998.6
2017-11-10T01:08:13.735Z,998.6
2017-11-10T01:08:33.917Z,998.6
2017-11-10T01:08:54.098Z,998.6
2017-11-10T01:09:14.272Z,998.6
2017-11-10T01:09:34.521Z,998.7
2017-11-10T01:09:54.709Z,998.6
2017-11-10T01:10:14.877Z,998.6
2017-11-10T01:10:35.101Z,998.7
2017-11-10T01:10:55.285Z,998.7
2017-11-10T01:11:15.457Z,998.6
2017-11-10T01:11:35.648Z,998.6
2017-11-10T01:11:55.820Z,998.6
2017-11-10T01:12:16.007Z,998.6
2017-11-10T01:12:36.202Z,998.6
2017-11-10T01:12:56.383Z,998.6
2017-11-10T01:13:16.558Z,998.6
2017-11-10T01:13:36.728Z,998.6
2017-11-10T01:13:56.976Z,998.6
2017-11-10T01:14:17.154Z,998.6
2017-11-10T01:14:37.344Z,998.7
2017-11-10T01:14:57.522Z,998.6
2017-11-10T01:15:17.715Z,998.7
2017-11-10T01:15:37.952Z,998.7
2017-11-10T01:15:58.140Z,998.7
2017-11-10T01:16:18.305Z,998.7
2017-11-10T01:16:38.478Z,998.6
2017-11-10T01:16:58.665Z,998.7
2017-11-10T01:17:18.905Z,998.7
2017-11-10T01:17:39.105Z,998.7
2017-11-10T01:17:59.282Z,998.7
2017-11-10T01:18:19.506Z,998.6
2017-11-10T01:18:39.699Z,998.7
2017-11-10T01:18:59.880Z,998.6
2017-11-10T01:19:20.074Z,998.7
2017-11-10T01:19:40.254Z,998.6
2017-11-10T01:20:00.514Z,998.6
2017-11-10T01:20:20.688Z,998.6
2017-11-10T01:20:40.870Z,998.6
2017-11-10T01:21:01.054Z,998.7
2017-11-10T01:21:21.305Z,998.6
2017-11-10T01:21:41.530Z,998.6
2017-11-10T01:22:01.791Z,998.6
2017-11-10T01:22:22.024Z,998.6
2017-11-10T01:22:42.195Z,998.6
2017-11-10T01:23:02.369Z,998.6
2017-11-10T01:23:22.612Z,998.6
2017-11-10T01:23:42.792Z,998.6
2017-11-10T01:24:02.970Z,998.6
2017-11-10T01:24:23.139Z,998.6
2017-11-10T01:24:43.322Z,998.6
2017-11-10T01:25:03.514Z,998.6
2017-11-10T01:25:23.686Z,998.5
2017-11-10T01:25:43.921Z,998.5
2017-11-10T01:26:04.112Z,998.5
2017-11-10T01:26:24.378Z,998.5
2017-11-10T01:26:44.557Z,998.5
2017-11-10T01:27:04.739Z,998.5
2017-11-10T01:27:24.968Z,998.5
2017-11-10T01:27:45.203Z,998.5
2017-11-10T01:28:05.377Z,998.6
2017-11-10T01:28:25.573Z,998.6
2017-11-10T01:28:45.763Z,998.5
2017-11-10T01:29:05.941Z,998.6
2017-11-10T01:29:26.107Z,998.6
2017-11-10T01:29:46.266Z,998.6
2017-11-10T01:30:06.432Z,998.6
2017-11-10T01:30:26.624Z,998.6
2017-11-10T01:30:46.802Z,998.6
2017-11-10T01:31:07.074Z,998.6
2017-11-10T01:31:27.253Z,998.6
2017-11-10T01:31:47.495Z,998.6
2017-11-10T01:32:07.685Z,998.6
2017-11-10T01:32:27.860Z,998.5
2017-11-10T01:32:48.125Z,998.5
2017-11-10T01:33:08.301Z,998.6
2017-11-10T01:33:28.475Z,998.6
2017-11-10T01:33:48.649Z,998.6
2017-11-10T01:34:08.811Z,998.6
2017-11-10T01:34:29.067Z,998.6
2017-11-10T01:34:49.248Z,998.6
2017-11-10T01:35:09.493Z,998.5
2017-11-10T01:35:29.661Z,998.5
2017-11-10T01:35:49.843Z,998.5
2017-11-10T01:36:10.009Z,998.5
2017-11-10T01:36:30.183Z,998.5
2017-11-10T01:36:50.355Z,998.5
2017-11-10T01:37:10.544Z,998.5
2017-11-10T01:37:30.742Z,998.5
2017-11-10T01:37:50.942Z,998.5
2017-11-10T01:38:11.193Z,998.5
2017-11-10T01:38:31.437Z,998.5
2017-11-10T01:38:51.622Z,998.5
2017-11-10T01:39:11.864Z,998.5
2017-11-10T01:39:32.033Z,998.5
2017-11-10T01:39:52.284Z,998.4
2017-11-10T01:40:12.489Z,998.5
2017-11-10T01:40:32.659Z,998.5
2017-11-10T01:40:52.846Z,998.5
2017-11-10T01:41:13.099Z,998.5
2017-11-10T01:41:33.276Z,998.5
2017-11-10T01:41:53.442Z,998.4
2017-11-10T01:42:13.620Z,998.4
2017-11-10T01:42:33.797Z,998.4
2017-11-10T01:42:53.972Z,998.5
2017-11-10T01:43:14.157Z,998.4
2017-11-10T01:43:34.347Z,998.4
2017-11-10T01:43:54.548Z,998.4
2017-11-10T01:44:14.731Z,998.4
2017-11-10T01:44:34.903Z,998.4
2017-11-10T01:44:55.157Z,998.4
2017-11-10T01:45:15.361Z,998.4
2017-11-10T01:45:35.627Z,998.4
2017-11-10T01:45:55.816Z,998.4
2017-11-10T01:46:16.002Z,998.4
2017-11-10T01:46:36.171Z,998.3
2017-11-10T01:46:56.346Z,998.4
2017-11-10T01:47:16.523Z,998.4
2017-11-10T01:47:36.689Z,998.3
2017-11-10T01:47:56.880Z,998.3
2017-11-10T01:48:17.065Z,998.3
2017-11-10T01:48:37.244Z,998.3
2017-11-10T01:48:57.423Z,998.3
2017-11-10T01:49:17.597Z,998.2
2017-11-10T01:49:37.770Z,998.2
2017-11-10T01:49:57.939Z,998.2
2017-11-10T01:50:18.131Z,998.2
2017-11-10T01:50:38.307Z,998.2
2017-11-10T01:50:58.480Z,998.2
2017-11-10T01:51:18.677Z,998.2
2017-11-10T01:51:38.929Z,998.2
2017-11-10T01:51:59.104Z,998.2
2017-11-10T01:52:19.276Z,998.2
2017-11-10T01:52:39.457Z,998.2
2017-11-10T01:52:59.647Z,998.1
2017-11-10T01:53:19.815Z,998.2
2017-11-10T01:53:39.987Z,998.2
2017-11-10T01:54:00.163Z,998.1
2017-11-10T01:54:20.350Z,998.1
2017-11-10T01:54:40.543Z,998.1
2017-11-10T01:55:00.717Z,998.1
2017-11-10T01:55:20.885Z,998.1
2017-11-10T01:55:41.075Z,998.1
2017-11-10T01:56:01.245Z,998.1
2017-11-10T01:56:21.443Z,998
2017-11-10T01:56:41.616Z,998.1
2017-11-10T01:57:01.864Z,998.1
2017-11-10T01:57:22.034Z,998.1
2017-11-10T01:57:42.215Z,998.1
2017-11-10T01:58:02.389Z,998.1
2017-11-10T01:58:22.566Z,998.1
2017-11-10T01:58:42.777Z,998.1
2017-11-10T01:59:02.968Z,998.1
2017-11-10T01:59:23.145Z,998.1
2017-11-10T01:59:43.314Z,998
2017-11-10T02:00:03.504Z,998.1
2017-11-10T02:00:23.681Z,998
2017-11-10T02:00:43.866Z,998.1
2017-11-10T02:01:04.057Z,998.1
2017-11-10T02:01:24.313Z,998.1
2017-11-10T02:01:44.499Z,998.1
2017-11-10T02:02:04.664Z,998.1
2017-11-10T02:02:24.859Z,998.1
2017-11-10T02:02:45.062Z,998
2017-11-10T02:03:05.252Z,998.1
2017-11-10T02:03:25.413Z,998.1
2017-11-10T02:03:45.603Z,998.1
2017-11-10T02:04:05.776Z,998.1
2017-11-10T02:04:25.951Z,998
2017-11-10T02:04:46.125Z,998.1
2017-11-10T02:05:06.295Z,998.1
2017-11-10T02:05:26.461Z,998.1
2017-11-10T02:05:46.668Z,998.1
2017-11-10T02:06:06.831Z,998.1
2017-11-10T02:06:27.018Z,998.1
2017-11-10T02:06:47.203Z,998.1
2017-11-10T02:07:07.480Z,998.1
2017-11-10T02:07:27.665Z,998
2017-11-10T02:07:47.893Z,998
2017-11-10T02:08:08.077Z,998
2017-11-10T02:08:28.253Z,998
2017-11-10T02:08:48.431Z,998
2017-11-10T02:09:08.615Z,998
2017-11-10T02:09:28.852Z,998
2017-11-10T02:09:49.033Z,998
2017-11-10T02:10:09.208Z,998
2017-11-10T02:10:29.373Z,998.1
2017-11-10T02:10:49.553Z,998
2017-11-10T02:11:09.734Z,998.1
2017-11-10T02:11:29.920Z,998
2017-11-10T02:11:50.147Z,998
2017-11-10T02:12:10.326Z,998.1
2017-11-10T02:12:30.524Z,998.1
2017-11-10T02:12:50.716Z,998.1
2017-11-10T02:13:10.901Z,998
2017-11-10T02:13:31.136Z,998
2017-11-10T02:13:51.318Z,998
2017-11-10T02:14:11.499Z,998
2017-11-10T02:14:31.680Z,998
2017-11-10T02:14:51.862Z,998
2017-11-10T02:15:12.050Z,998
2017-11-10T02:15:32.287Z,998
2017-11-10T02:15:52.451Z,998
2017-11-10T02:16:12.628Z,998
2017-11-10T02:16:32.871Z,998
2017-11-10T02:16:53.132Z,997.9
2017-11-10T02:17:13.327Z,998
2017-11-10T02:17:33.502Z,998
2017-11-10T02:17:53.675Z,998
2017-11-10T02:18:13.855Z,997.9
2017-11-10T02:18:34.037Z,998
2017-11-10T02:18:54.209Z,998
2017-11-10T02:19:14.377Z,998
2017-11-10T02:19:34.553Z,998
2017-11-10T02:19:54.731Z,998
2017-11-10T02:20:14.902Z,998
2017-11-10T02:20:35.073Z,998
2017-11-10T02:20:55.271Z,998
2017-11-10T02:21:15.580Z,998
2017-11-10T02:21:35.768Z,997.9
2017-11-10T02:21:55.935Z,997.9
2017-11-10T02:22:16.104Z,998
2017-11-10T02:22:37.000Z,998
2017-11-10T02:22:57.176Z,998
2017-11-10T02:23:17.367Z,998
2017-11-10T02:23:37.547Z,998
2017-11-10T02:23:57.714Z,998
2017-11-10T02:24:17.960Z,998
2017-11-10T02:24:38.157Z,997.9
2017-11-10T02:24:58.329Z,998
2017-11-10T02:25:18.501Z,997.9
2017-11-10T02:25:38.674Z,998
2017-11-10T02:25:58.881Z,998
2017-11-10T02:26:19.113Z,998
2017-11-10T02:26:39.301Z,997.9
2017-11-10T02:26:59.483Z,998
2017-11-10T02:27:19.655Z,998
2017-11-10T02:27:39.858Z,997.9
2017-11-10T02:28:00.051Z,997.9
2017-11-10T02:28:20.241Z,998
2017-11-10T02:28:40.411Z,998
2017-11-10T02:29:00.601Z,998
2017-11-10T02:29:20.773Z,998
2017-11-10T02:29:40.957Z,998
2017-11-10T02:30:01.131Z,998
2017-11-10T02:30:21.306Z,997.9
2017-11-10T02:30:41.479Z,998
2017-11-10T02:31:01.668Z,998
2017-11-10T02:31:21.849Z,997.9
2017-11-10T02:31:42.027Z,997.9
2017-11-10T02:32:02.194Z,997.9
2017-11-10T02:32:22.371Z,997.9
2017-11-10T02:32:42.541Z,997.9
2017-11-10T02:33:02.714Z,997.9
2017-11-10T02:33:22.898Z,997.9
2017-11-10T02:33:43.074Z,997.9
2017-11-10T02:34:03.249Z,997.9
2017-11-10T02:34:23.438Z,997.9
2017-11-10T02:34:43.618Z,997.9
2017-11-10T02:35:03.800Z,997.9
2017-11-10T02:35:23.979Z,997.8
2017-11-10T02:35:44.174Z,997.9
2017-11-10T02:36:04.476Z,997.8
2017-11-10T02:36:24.657Z,997.8
2017-11-10T02:36:44.824Z,997.8
2017-11-10T02:37:05.012Z,997.8
2017-11-10T02:37:25.186Z,997.8
2017-11-10T02:37:45.362Z,997.8
2017-11-10T02:38:05.536Z,997.8
2017-11-10T02:38:25.707Z,997.8
2017-11-10T02:38:45.888Z,997.8
2017-11-10T02:39:06.068Z,997.8
2017-11-10T02:39:26.249Z,997.8
2017-11-10T02:39:46.415Z,997.8
2017-11-10T02:40:06.592Z,997.8
2017-11-10T02:40:26.868Z,997.8
2017-11-10T02:40:47.055Z,997.8
2017-11-10T02:41:07.207Z,997.8
2017-11-10T02:41:27.385Z,997.8
2017-11-10T02:41:47.617Z,997.8
2017-11-10T02:42:07.795Z,997.8
2017-11-10T02:42:27.981Z,997.8
2017-11-10T02:42:49.390Z,997.8
2017-11-10T02:43:09.558Z,997.7
2017-11-10T02:43:29.818Z,997.7
2017-11-10T02:43:50.015Z,997.8
2017-11-10T02:44:10.180Z,997.8
2017-11-10T02:44:30.365Z,997.7
2017-11-10T02:44:50.539Z,997.8
2017-11-10T02:45:10.743Z,997.7
2017-11-10T02:45:31.164Z,997.8
2017-11-10T02:45:51.349Z,997.7
2017-11-10T02:46:11.591Z,997.8
2017-11-10T02:46:31.857Z,997.7
2017-11-10T02:46:52.045Z,997.7
2017-11-10T02:47:12.283Z,997.7
2017-11-10T02:47:32.463Z,997.8
2017-11-10T02:47:52.651Z,997.7
2017-11-10T02:48:12.824Z,997.7
2017-11-10T02:48:33.000Z,997.7
2017-11-10T02:48:53.174Z,997.7
2017-11-10T02:49:13.344Z,997.7
2017-11-10T02:49:33.515Z,997.7
2017-11-10T02:49:53.687Z,997.7
2017-11-10T02:50:13.856Z,997.7
2017-11-10T02:50:34.031Z,997.7
2017-11-10T02:50:54.210Z,997.7
2017-11-10T02:51:14.387Z,997.6
2017-11-10T02:51:34.565Z,997.6
2017-11-10T02:51:54.744Z,997.7
2017-11-10T02:52:14.971Z,997.7
2017-11-10T02:52:35.204Z,997.6
2017-11-10T02:52:55.384Z,997.6
2017-11-10T02:53:15.580Z,997.6
2017-11-10T02:53:35.756Z,997.6
2017-11-10T02:53:55.924Z,997.6
2017-11-10T02:54:16.091Z,997.6
2017-11-10T02:54:36.262Z,997.6
2017-11-10T02:54:56.496Z,997.6
2017-11-10T02:55:16.699Z,997.6
2017-11-10T02:55:36.867Z,997.6
2017-11-10T02:55:57.050Z,997.6
2017-11-10T02:56:17.234Z,997.5
2017-11-10T02:56:37.422Z,997.5
2017-11-10T02:56:57.603Z,997.5
2017-11-10T02:57:17.843Z,997.5
2017-11-10T02:57:38.017Z,997.5
2017-11-10T02:57:58.209Z,997.4
2017-11-10T02:58:18.366Z,997.4
2017-11-10T02:58:38.545Z,997.4
2017-11-10T02:58:58.724Z,997.4
2017-11-10T02:59:18.901Z,997.4
2017-11-10T02:59:39.088Z,997.4
2017-11-10T02:59:59.272Z,997.3
2017-11-10T03:00:19.456Z,997.3
2017-11-10T03:00:39.624Z,997.3
2017-11-10T03:00:59.975Z,997.3
2017-11-10T03:01:20.169Z,997.3
2017-11-10T03:01:40.370Z,997.3
2017-11-10T03:02:00.535Z,997.3
2017-11-10T03:02:20.757Z,997.3
2017-11-10T03:02:41.007Z,997.3
2017-11-10T03:03:01.178Z,997.3
2017-11-10T03:03:21.355Z,997.3
2017-11-10T03:03:41.536Z,997.3
2017-11-10T03:04:01.774Z,997.3
2017-11-10T03:04:21.962Z,997.3
2017-11-10T03:04:42.127Z,997.3
2017-11-10T03:05:02.357Z,997.3
2017-11-10T03:05:22.533Z,997.3
2017-11-10T03:05:42.708Z,997.3
2017-11-10T03:06:02.888Z,997.3
2017-11-10T03:06:23.139Z,997.3
2017-11-10T03:06:43.301Z,997.3
2017-11-10T03:07:03.475Z,997.3
2017-11-10T03:07:23.646Z,997.3
2017-11-10T03:07:43.827Z,997.3
2017-11-10T03:08:04.009Z,997.3
2017-11-10T03:08:24.193Z,997.3
2017-11-10T03:08:44.367Z,997.3
2017-11-10T03:09:04.542Z,997.3
2017-11-10T03:09:24.711Z,997.3
2017-11-10T03:09:44.879Z,997.3
2017-11-10T03:10:05.060Z,997.3
2017-11-10T03:10:25.242Z,997.3
2017-11-10T03:10:45.420Z,997.3
2017-11-10T03:11:05.596Z,997.3
2017-11-10T03:11:25.762Z,997.3
2017-11-10T03:11:45.997Z,997.2
2017-11-10T03:12:06.226Z,997.2
2017-11-10T03:12:26.408Z,997.2
2017-11-10T03:12:46.628Z,997.2
2017-11-10T03:13:06.818Z,997.2
2017-11-10T03:13:26.990Z,997.2
2017-11-10T03:13:47.161Z,997.2
2017-11-10T03:14:07.325Z,997.2
2017-11-10T03:14:27.506Z,997.2
2017-11-10T03:14:47.753Z,997.2
2017-11-10T03:15:07.946Z,997.2
2017-11-10T03:15:28.123Z,997.2
2017-11-10T03:15:48.304Z,997.2
2017-11-10T03:16:08.477Z,997.2
2017-11-10T03:16:28.683Z,997.2
2017-11-10T03:16:48.917Z,997.1
2017-11-10T03:17:09.112Z,997.1
2017-11-10T03:17:29.299Z,997.2
2017-11-10T03:17:49.478Z,997.1
2017-11-10T03:18:09.641Z,997.2
2017-11-10T03:18:30.385Z,997.1
2017-11-10T03:18:50.646Z,997.1
2017-11-10T03:19:10.807Z,997.1
2017-11-10T03:19:30.981Z,997.1
2017-11-10T03:19:51.152Z,997.1
2017-11-10T03:20:11.331Z,997.1
2017-11-10T03:20:31.512Z,997.1
2017-11-10T03:20:51.687Z,997.1
2017-11-10T03:21:11.891Z,997.1
2017-11-10T03:21:32.203Z,997.1
2017-11-10T03:21:52.494Z,997.1
2017-11-10T03:22:12.712Z,997.1
2017-11-10T03:22:32.891Z,997.1
2017-11-10T03:22:53.121Z,997.1
2017-11-10T03:23:13.286Z,997.1
2017-11-10T03:23:33.467Z,997.1
2017-11-10T03:23:53.710Z,997.1
2017-11-10T03:24:13.951Z,997
2017-11-10T03:24:34.191Z,997
2017-11-10T03:24:54.391Z,997
2017-11-10T03:25:14.627Z,997
2017-11-10T03:25:34.793Z,997
2017-11-10T03:25:54.988Z,997
2017-11-10T03:26:15.163Z,997
2017-11-10T03:26:35.355Z,997
2017-11-10T03:26:55.525Z,996.9
2017-11-10T03:27:15.702Z,996.9
2017-11-10T03:27:35.877Z,996.9
2017-11-10T03:27:56.115Z,997
2017-11-10T03:28:16.284Z,996.9
2017-11-10T03:28:36.469Z,997
2017-11-10T03:28:56.644Z,997
2017-11-10T03:29:16.835Z,996.9
2017-11-10T03:29:37.005Z,996.9
2017-11-10T03:29:57.353Z,997
2017-11-10T03:30:17.534Z,996.9
2017-11-10T03:30:37.707Z,996.9
2017-11-10T03:30:57.880Z,996.9
2017-11-10T03:31:18.050Z,996.9
2017-11-10T03:31:38.218Z,996.9
2017-11-10T03:31:58.397Z,996.9
2017-11-10T03:32:18.575Z,996.9
2017-11-10T03:32:38.746Z,996.8
2017-11-10T03:32:58.922Z,996.9
2017-11-10T03:33:19.379Z,996.8
2017-11-10T03:33:39.567Z,996.8
2017-11-10T03:33:59.748Z,996.8
2017-11-10T03:34:19.928Z,996.8
2017-11-10T03:34:40.113Z,996.8
2017-11-10T03:35:00.303Z,996.8
2017-11-10T03:35:20.464Z,996.8
2017-11-10T03:35:40.633Z,996.9
2017-11-10T03:36:00.828Z,996.8
2017-11-10T03:36:20.992Z,996.8
2017-11-10T03:36:41.221Z,996.8
2017-11-10T03:37:01.466Z,996.8
2017-11-10T03:37:21.711Z,996.8
2017-11-10T03:37:41.897Z,996.8
2017-11-10T03:38:02.085Z,996.8
2017-11-10T03:38:22.257Z,996.8
2017-11-10T03:38:42.434Z,996.9
2017-11-10T03:39:02.599Z,996.8
2017-11-10T03:39:22.774Z,996.8
2017-11-10T03:39:42.968Z,996.8
2017-11-10T03:40:03.236Z,996.8
2017-11-10T03:40:23.394Z,996.8
2017-11-10T03:40:43.588Z,996.8
2017-11-10T03:41:03.826Z,996.8
2017-11-10T03:41:23.991Z,996.8
2017-11-10T03:41:44.171Z,996.8
2017-11-10T03:42:04.352Z,996.8
2017-11-10T03:42:24.554Z,996.8
2017-11-10T03:42:44.717Z,996.8
2017-11-10T03:43:04.895Z,996.8
2017-11-10T03:43:25.068Z,996.8
2017-11-10T03:43:45.254Z,996.8
2017-11-10T03:44:05.423Z,996.8
2017-11-10T03:44:25.676Z,996.8
2017-11-10T03:44:45.841Z,996.8
2017-11-10T03:45:06.021Z,996.8
2017-11-10T03:45:26.192Z,996.8
2017-11-10T03:45:46.359Z,996.8
2017-11-10T03:46:06.601Z,996.8
2017-11-10T03:46:26.784Z,996.8
2017-11-10T03:46:46.968Z,996.8
2017-11-10T03:47:07.145Z,996.7
2017-11-10T03:47:27.318Z,996.8
2017-11-10T03:47:47.512Z,996.8
2017-11-10T03:48:07.724Z,996.8
2017-11-10T03:48:27.908Z,996.8
2017-11-10T03:48:48.088Z,996.7
2017-11-10T03:49:08.274Z,996.7
2017-11-10T03:49:28.442Z,996.7
2017-11-10T03:49:48.623Z,996.7
2017-11-10T03:50:08.801Z,996.7
2017-11-10T03:50:28.969Z,996.7
2017-11-10T03:50:49.203Z,996.8
2017-11-10T03:51:09.377Z,996.7
2017-11-10T03:51:29.619Z,996.7
2017-11-10T03:51:49.801Z,996.7
2017-11-10T03:52:09.969Z,996.7
2017-11-10T03:52:30.206Z,996.7
2017-11-10T03:52:50.381Z,996.7
2017-11-10T03:53:10.558Z,996.7
2017-11-10T03:53:30.790Z,996.6
2017-11-10T03:53:50.958Z,996.7
2017-11-10T03:54:11.154Z,996.6
2017-11-10T03:54:31.345Z,996.6
2017-11-10T03:54:51.533Z,996.6
2017-11-10T03:55:11.710Z,996.6
2017-11-10T03:55:31.873Z,996.6
2017-11-10T03:55:52.055Z,996.6
2017-11-10T03:56:12.223Z,996.6
2017-11-10T03:56:32.395Z,996.5
2017-11-10T03:56:52.575Z,996.5
2017-11-10T03:57:12.731Z,996.5
2017-11-10T03:57:32.977Z,996.5
2017-11-10T03:57:53.163Z,996.5
2017-11-10T03:58:13.359Z,996.4
2017-11-10T03:58:33.538Z,996.5
2017-11-10T03:58:53.716Z,996.5
2017-11-10T03:59:13.881Z,996.5
2017-11-10T03:59:34.077Z,996.4
2017-11-10T03:59:54.243Z,996.4
2017-11-10T04:00:14.424Z,996.4
2017-11-10T04:00:34.682Z,996.5
2017-11-10T04:00:54.872Z,996.4
2017-11-10T04:01:15.045Z,996.4
2017-11-10T04:01:35.220Z,996.4
2017-11-10T04:01:55.404Z,996.5
2017-11-10T04:02:15.577Z,996.5
2017-11-10T04:02:35.756Z,996.5
2017-11-10T04:02:55.992Z,996.5
2017-11-10T04:03:16.194Z,996.5
2017-11-10T04:03:36.572Z,996.4
2017-11-10T04:03:56.798Z,996.4
2017-11-10T04:04:16.977Z,996.4
2017-11-10T04:04:37.158Z,996.4
2017-11-10T04:04:57.363Z,996.4
2017-11-10T04:05:17.530Z,996.4
2017-11-10T04:05:37.835Z,996.4
2017-11-10T04:05:58.019Z,996.4
2017-11-10T04:06:18.195Z,996.4
2017-11-10T04:06:38.377Z,996.4
2017-11-10T04:06:58.552Z,996.4
2017-11-10T04:07:18.813Z,996.4
2017-11-10T04:07:39.049Z,996.4
2017-11-10T04:07:59.222Z,996.4
2017-11-10T04:08:19.389Z,996.4
2017-11-10T04:08:39.573Z,996.4
2017-11-10T04:08:59.766Z,996.4
2017-11-10T04:09:19.956Z,996.4
2017-11-10T04:09:40.159Z,996.4
2017-11-10T04:10:00.681Z,996.3
2017-11-10T04:10:20.855Z,996.4
2017-11-10T04:10:41.020Z,996.4
2017-11-10T04:11:01.200Z,996.3
2017-11-10T04:11:21.386Z,996.3
2017-11-10T04:11:41.568Z,996.4
2017-11-10T04:12:01.750Z,996.3
2017-11-10T04:12:21.919Z,996.3
2017-11-10T04:12:42.090Z,996.3
2017-11-10T04:13:02.265Z,996.3
2017-11-10T04:13:22.479Z,996.3
2017-11-10T04:13:42.677Z,996.2
2017-11-10T04:14:02.971Z,996.2
2017-11-10T04:14:23.203Z,996.2
2017-11-10T04:14:43.373Z,996.2
2017-11-10T04:15:03.538Z,996.2
2017-11-10T04:15:23.791Z,996.2
2017-11-10T04:15:43.957Z,996.2
2017-11-10T04:16:04.144Z,996.2
2017-11-10T04:16:24.314Z,996.2
2017-11-10T04:16:44.478Z,996.2
2017-11-10T04:17:04.662Z,996.2
2017-11-10T04:17:24.856Z,996.2
2017-11-10T04:17:45.032Z,996.2
2017-11-10T04:18:05.415Z,996.2
2017-11-10T04:18:25.704Z,996.2
2017-11-10T04:18:45.876Z,996.2
2017-11-10T04:19:06.057Z,996.2
2017-11-10T04:19:26.235Z,996.2
2017-11-10T04:19:46.405Z,996.2
2017-11-10T04:20:06.578Z,996.2
2017-11-10T04:20:26.748Z,996.2
2017-11-10T04:20:46.984Z,996.2
2017-11-10T04:21:07.373Z,996.2
2017-11-10T04:21:27.559Z,996.2
2017-11-10T04:21:47.741Z,996.2
2017-11-10T04:22:07.973Z,996.2
2017-11-10T04:22:28.156Z,996.2
2017-11-10T04:22:48.333Z,996.2